Midlothian, TX (76065)

6:37 AM CDT on September 21, 2019 (GMT -0500)
Midlothian | | Change Station

Elev 741 ft 32.46 °N, 96.97 °W | Updated 17 seconds ago

Mostly Cloudy
Mostly Cloudy
76.1 °F
Feels Like 76 °F
N
2
Wind Variable Wind from WSW
Gusts 3.4 mph

Today
High -- | Low -- °F
--% Chance of Precip.
Yesterday
High -- | Low -- °F
Precip. -- in
Pressure 30.06 in
Visibility 10.0 miles
Clouds Mostly Cloudy 1300 ft
Mostly Cloudy 2000 ft
Overcast 3500 ft
Heat Index 76 °F
Dew Point 73 °F
Humidity 91%
Rainfall 0.00 in
Snow Depth Not available.
7:15 AM 7:26 PM
Waning Gibbous, 57% visible
METAR KJWY 211115Z AUTO 16006KT 10SM BKN013 BKN020 OVC035 25/23 A3006 RMK AO2 T02460228
Pressure 30.06 in
Visibility 10.0 miles
Clouds Mostly Cloudy 1300 ft
Mostly Cloudy 2000 ft
Overcast 3500 ft
Heat Index 76 °F
Dew Point 73 °F
Humidity 91%
Rainfall 0.00 in
Snow Depth Not available.
7:15 AM 7:26 PM
Waning Gibbous, 57% visible
METAR KJWY 211115Z AUTO 16006KT 10SM BKN013 BKN020 OVC035 25/23 A3006 RMK AO2 T02460228

Get Severe Weather Alerts

Thanks for signing up!

Be on the lookout for a verification email in your inbox.

You'll start receiving the daily forecast at 6 AM.

×

10-Day Weather Forecast

Almanac

Astronomy

Sep. 21, 2019 Rise Set
Actual Time
Civil Twilight
Nautical Twilight
Astronomical Twilight
Moon
Length of Visible Light
Length of Day
Tomorrow will be .
, % of the Moon is Illuminated

Today's Extremes

State Highs State Lows

Community

WunderPhotos

Category 6

Welcome to Category 6. This is the collective home for Weather Underground's featured writeups by Dr. Jeff Masters (right), Bob Henson (left), Chris Burt, and other regular contributors.

Nearby

Air Quality

  Air Quality AQ Index Pollutant
Not available.

Snow Depth

Station Depth Elevation

Earthquake Activity

City Distance Mag. Time & Date
Minimum magnitude displayed is 2.5.

Coastal Water Temperatures

Place Temperature

Stations

Nearby Weather Stations

Station Location Temp. Windchill Dew Point Humidity Wind Precip. Elev Updated Type
                   

Watches & Warnings

There are currently no watches in effect.